Time;durP1;ratioP1;P1;durP2;ratioP2;P2;SDS_P1;SDS_P2;PMS_P1;PMS_P2;Temp;Humidity;BMP_temperature;BMP_pressure;BME280_temperature;BME280_humidity;BME280_pressure;Samples;Min_cycle;Max_cycle;Signal;HPM_P1;HPM_P2
2021/04/26 00:00:41;;;;;;;526.53;465.00;;;5.60;92.00;;;;;;4959544;28;20417;-69
2021/04/26 00:03:10;;;;;;;525.35;448.80;;;5.50;92.20;;;;;;4961144;29;20416;-72
2021/04/26 00:05:37;;;;;;;550.55;462.45;;;5.50;92.20;;;;;;4959383;29;20429;-69
2021/04/26 00:08:06;;;;;;;536.60;453.20;;;5.50;92.70;;;;;;4957049;29;20810;-72
2021/04/26 00:10:34;;;;;;;559.90;453.05;;;5.40;92.70;;;;;;4960855;29;20425;-69
2021/04/26 00:13:01;;;;;;;511.67;435.70;;;5.40;92.70;;;;;;4962716;28;20489;-69
2021/04/26 00:15:53;;;;;;;532.00;468.55;;;5.40;92.70;;;;;;4963637;28;20448;-69
2021/04/26 00:18:21;;;;;;;535.50;464.67;;;5.40;93.00;;;;;;4979535;28;20417;-69
2021/04/26 00:20:49;;;;;;;575.33;482.03;;;5.30;93.40;;;;;;4964047;29;20414;-72
2021/04/26 00:23:16;;;;;;;552.03;473.83;;;5.30;93.10;;;;;;4978281;28;20425;-69
2021/04/26 00:25:44;;;;;;;568.45;462.48;;;5.20;93.30;;;;;;4961979;29;20509;-72
2021/04/26 00:28:11;;;;;;;604.33;489.58;;;5.30;93.40;;;;;;4964318;29;20429;-69
2021/04/26 00:30:39;;;;;;;542.63;470.30;;;5.30;94.00;;;;;;4939942;29;20411;-69
2021/04/26 00:33:08;;;;;;;568.60;446.10;;;5.20;94.00;;;;;;4975897;28;20423;-69
2021/04/26 00:35:37;;;;;;;574.60;437.33;;;5.10;93.90;;;;;;4945589;29;20451;-69
2021/04/26 00:38:32;;;;;;;564.65;451.45;;;5.10;94.30;;;;;;4945281;29;20480;-69
2021/04/26 00:41:00;;;;;;;548.65;457.77;;;5.10;94.60;;;;;;4945444;29;20431;-69
2021/04/26 00:43:27;;;;;;;585.83;436.80;;;5.00;95.00;;;;;;4945164;29;20426;-69
2021/04/26 00:45:55;;;;;;;578.58;422.67;;;5.00;95.30;;;;;;4944039;28;20416;-68
2021/04/26 00:48:23;;;;;;;557.58;431.65;;;5.00;95.00;;;;;;4945026;29;20442;-69
2021/04/26 00:50:53;;;;;;;576.78;427.90;;;5.00;95.40;;;;;;4944478;29;20482;-69
2021/04/26 00:53:21;;;;;;;551.15;429.23;;;4.90;95.20;;;;;;4945010;29;20751;-69
2021/04/26 00:55:48;;;;;;;564.97;441.00;;;5.00;95.50;;;;;;4961225;29;20896;-69
2021/04/26 00:58:16;;;;;;;617.95;462.65;;;4.90;95.40;;;;;;4946380;29;20482;-69
2021/04/26 01:00:44;;;;;;;624.20;448.10;;;4.90;95.90;;;;;;4945163;28;20431;-69
2021/04/26 01:03:13;;;;;;;604.65;429.25;;;4.90;95.50;;;;;;4983487;28;20420;-69
2021/04/26 01:05:42;;;;;;;548.28;421.60;;;5.00;95.30;;;;;;4953073;29;20412;-69
2021/04/26 01:08:11;;;;;;;566.50;431.10;;;5.00;95.10;;;;;;4985278;28;20431;-69
2021/04/26 01:10:59;;;;;;;584.15;442.10;;;4.90;95.70;;;;;;4953878;29;20423;-69
2021/04/26 01:13:51;;;;;;;621.67;451.05;;;4.70;96.10;;;;;;4954640;29;20416;-69
2021/04/26 01:16:24;;;;;;;621.10;449.67;;;4.70;95.80;;;;;;4953237;29;20427;-69
2021/04/26 01:19:01;;;;;;;589.95;475.27;;;4.80;96.70;;;;;;4946699;29;20462;-69
2021/04/26 01:22:05;;;;;;;590.60;449.60;;;4.80;96.10;;;;;;4960228;28;20563;-69
2021/04/26 01:24:57;;;;;;;581.80;451.83;;;4.90;96.40;;;;;;4958553;28;20403;-70
2021/04/26 01:28:08;;;;;;;589.05;462.40;;;4.80;96.40;;;;;;4943855;29;20532;-69
2021/04/26 01:30:43;;;;;;;594.23;461.23;;;4.80;96.50;;;;;;4969121;28;21384;-69
2021/04/26 01:33:20;;;;;;;584.65;445.45;;;4.80;96.40;;;;;;4947371;29;20441;-68
2021/04/26 01:35:59;;;;;;;600.97;454.67;;;4.80;96.20;;;;;;4962299;29;20428;-68
2021/04/26 01:38:33;;;;;;;589.92;463.00;;;4.90;95.90;;;;;;4994804;28;20432;-69
2021/04/26 01:41:01;;;;;;;619.42;468.27;;;4.90;95.70;;;;;;4964639;28;20417;-69
2021/04/26 01:43:30;;;;;;;598.05;451.02;;;4.90;95.50;;;;;;4975983;28;20409;-69
2021/04/26 01:46:02;;;;;;;600.95;429.55;;;4.90;95.40;;;;;;4968303;28;20418;-70
2021/04/26 01:48:39;;;;;;;607.22;415.25;;;5.00;95.30;;;;;;4978706;28;20426;-68
2021/04/26 01:51:10;;;;;;;579.95;425.13;;;5.00;95.30;;;;;;4946633;29;20422;-69
2021/04/26 01:53:39;;;;;;;585.37;443.50;;;5.00;95.30;;;;;;4978514;28;20501;-69
2021/04/26 01:56:10;;;;;;;580.63;441.92;;;4.90;95.40;;;;;;4964121;28;20505;-69
2021/04/26 01:58:50;;;;;;;583.92;432.33;;;4.90;95.60;;;;;;4994833;28;20460;-68
2021/04/26 02:01:21;;;;;;;597.92;455.92;;;5.00;95.70;;;;;;4961727;28;20421;-69
2021/04/26 02:03:54;;;;;;;617.10;456.17;;;4.90;95.80;;;;;;4962897;28;20414;-69
2021/04/26 02:06:41;;;;;;;610.67;441.83;;;5.00;95.90;;;;;;4963475;29;20886;-70
2021/04/26 02:10:07;;;;;;;609.25;431.55;;;5.00;95.90;;;;;;4929868;28;20520;-70
2021/04/26 02:12:37;;;;;;;589.72;409.13;;;4.90;95.80;;;;;;4963611;29;20446;-69
2021/04/26 02:15:10;;;;;;;604.55;422.05;;;4.90;96.00;;;;;;4992720;28;20972;-69
2021/04/26 02:17:40;;;;;;;606.17;437.60;;;4.90;96.30;;;;;;4990788;28;20994;-69
2021/04/26 02:20:12;;;;;;;620.25;434.95;;;4.90;96.30;;;;;;4958792;29;20414;-69
2021/04/26 02:22:41;;;;;;;617.60;426.13;;;4.80;96.40;;;;;;4977531;28;20905;-69
2021/04/26 02:25:11;;;;;;;594.10;423.50;;;4.80;96.30;;;;;;4992218;28;20414;-68
2021/04/26 02:27:39;;;;;;;609.13;413.95;;;4.80;96.90;;;;;;4960757;29;20433;-69
2021/04/26 02:30:13;;;;;;;604.60;422.13;;;4.80;96.80;;;;;;4966926;28;20456;-69
2021/04/26 02:32:49;;;;;;;604.27;425.53;;;4.70;96.90;;;;;;4996933;28;20412;-69
2021/04/26 02:36:09;;;;;;;615.13;426.80;;;4.70;96.80;;;;;;4997434;28;20415;-69
2021/04/26 02:38:40;;;;;;;615.78;407.98;;;4.70;96.90;;;;;;4998351;28;20475;-70
2021/04/26 02:41:13;;;;;;;599.35;410.85;;;4.60;97.10;;;;;;4982763;28;20419;-69
2021/04/26 02:43:45;;;;;;;586.37;399.63;;;4.60;97.30;;;;;;4982462;28;20503;-69
2021/04/26 02:46:16;;;;;;;596.60;418.45;;;4.60;97.20;;;;;;4981754;28;20418;-69
2021/04/26 02:48:45;;;;;;;612.20;408.05;;;4.60;97.40;;;;;;4982403;28;20510;-69
2021/04/26 02:51:16;;;;;;;617.80;422.88;;;4.60;97.40;;;;;;4964887;28;20478;-71
2021/04/26 02:53:45;;;;;;;618.10;422.07;;;4.50;97.70;;;;;;4997986;28;20515;-68
2021/04/26 02:56:16;;;;;;;620.85;424.15;;;4.50;97.80;;;;;;4997777;28;20475;-68
2021/04/26 02:58:51;;;;;;;619.10;414.30;;;4.40;97.80;;;;;;4965039;28;20412;-69
2021/04/26 03:01:28;;;;;;;631.08;446.23;;;4.40;98.10;;;;;;4977710;28;20424;-71
2021/04/26 03:04:11;;;;;;;622.10;431.23;;;4.40;98.10;;;;;;4982435;28;20447;-69
2021/04/26 03:06:41;;;;;;;616.95;441.25;;;4.50;98.10;;;;;;4961748;28;20419;-69
2021/04/26 03:09:30;;;;;;;627.45;435.00;;;4.50;98.00;;;;;;4979238;28;20428;-69
2021/04/26 03:14:53;;;;;;;603.78;404.05;;;4.40;97.90;;;;;;4981548;28;20452;-71
2021/04/26 03:17:29;;;;;;;601.85;373.88;;;4.50;97.90;;;;;;4978111;28;20425;-71
2021/04/26 03:20:06;;;;;;;608.67;390.80;;;4.50;97.80;;;;;;4976922;28;20399;-69
2021/04/26 03:22:42;;;;;;;609.15;382.83;;;4.50;98.00;;;;;;4976910;28;20429;-71
2021/04/26 03:25:12;;;;;;;602.88;370.67;;;4.40;98.00;;;;;;4963019;28;20406;-69
2021/04/26 03:27:43;;;;;;;573.75;329.30;;;4.40;98.10;;;;;;4945754;29;20418;-69
2021/04/26 03:30:16;;;;;;;595.80;371.27;;;4.30;98.30;;;;;;4973489;28;20443;-69
2021/04/26 03:33:01;;;;;;;592.17;347.80;;;4.30;98.50;;;;;;4962624;29;20413;-69
2021/04/26 03:35:30;;;;;;;590.45;347.83;;;4.30;98.80;;;;;;4961525;29;20430;-69
2021/04/26 03:37:58;;;;;;;590.10;335.50;;;4.40;98.70;;;;;;4994200;28;20456;-69
2021/04/26 03:40:28;;;;;;;591.38;358.15;;;4.30;98.60;;;;;;4961981;29;20464;-69
2021/04/26 03:42:59;;;;;;;592.97;376.38;;;4.30;98.60;;;;;;4961641;29;20418;-72
2021/04/26 03:45:45;;;;;;;590.50;334.93;;;4.20;98.90;;;;;;4955065;29;20462;-69
2021/04/26 03:48:32;;;;;;;589.05;334.25;;;4.20;99.10;;;;;;4945846;29;20431;-69
2021/04/26 03:51:20;;;;;;;592.40;337.15;;;4.20;98.90;;;;;;4961814;28;20978;-69
2021/04/26 03:54:07;;;;;;;598.17;359.08;;;4.20;99.00;;;;;;4947776;29;20422;-69
2021/04/26 03:56:41;;;;;;;597.08;363.02;;;4.10;99.20;;;;;;4978336;28;20431;-69
2021/04/26 03:59:09;;;;;;;595.38;345.70;;;4.10;99.20;;;;;;4977974;28;20415;-69
2021/04/26 04:01:39;;;;;;;592.65;336.02;;;4.00;99.60;;;;;;4959577;28;20925;-69
2021/04/26 04:04:11;;;;;;;593.30;336.40;;;4.00;99.80;;;;;;4965249;28;20421;-69
2021/04/26 04:06:59;;;;;;;585.92;352.15;;;4.00;99.80;;;;;;4963157;29;20414;-69
2021/04/26 04:09:48;;;;;;;580.80;313.60;;;3.90;99.90;;;;;;4980987;28;20495;-69
2021/04/26 04:12:27;;;;;;;594.50;354.80;;;3.90;99.90;;;;;;4998752;28;20516;-69
2021/04/26 04:15:00;;;;;;;590.95;357.75;;;3.80;99.90;;;;;;4968441;29;20437;-71
2021/04/26 04:17:30;;;;;;;593.50;362.15;;;3.90;99.90;;;;;;4972042;28;20432;-69
2021/04/26 04:19:58;;;;;;;597.80;361.42;;;3.90;99.90;;;;;;4973489;28;20420;-68
2021/04/26 04:22:25;;;;;;;597.28;353.17;;;3.90;99.90;;;;;;4973782;29;20465;-68
2021/04/26 04:25:04;;;;;;;592.60;357.60;;;3.90;99.90;;;;;;4973783;29;20500;-68
2021/04/26 04:27:34;;;;;;;583.28;341.17;;;3.90;99.90;;;;;;4974132;29;20449;-69
2021/04/26 04:30:09;;;;;;;590.03;327.08;;;3.90;99.90;;;;;;4976360;28;20442;-68
2021/04/26 04:32:59;;;;;;;594.97;364.30;;;3.90;99.90;;;;;;4961501;29;20423;-68
2021/04/26 04:35:33;;;;;;;601.95;390.23;;;3.90;99.90;;;;;;4975930;29;20439;-69
2021/04/26 04:38:21;;;;;;;592.92;339.55;;;3.90;99.90;;;;;;4960045;29;20418;-69
2021/04/26 04:41:08;;;;;;;596.90;391.47;;;3.90;99.90;;;;;;4959714;29;20512;-70
2021/04/26 04:43:38;;;;;;;594.45;371.40;;;3.90;99.90;;;;;;4992486;28;20427;-70
2021/04/26 04:46:07;;;;;;;593.97;359.55;;;3.90;99.90;;;;;;4975735;29;20395;-70
2021/04/26 04:48:41;;;;;;;591.57;346.43;;;3.90;99.90;;;;;;4961695;29;20487;-70
2021/04/26 04:51:15;;;;;;;593.22;349.42;;;4.00;99.90;;;;;;4962118;28;20430;-70
2021/04/26 04:53:49;;;;;;;594.92;364.08;;;3.90;99.90;;;;;;4945255;29;20404;-69
2021/04/26 04:56:20;;;;;;;597.67;382.75;;;3.90;99.90;;;;;;4961899;29;20408;-69
2021/04/26 04:58:51;;;;;;;590.67;360.23;;;3.90;99.90;;;;;;4961064;29;20424;-70
2021/04/26 05:01:21;;;;;;;597.03;372.77;;;3.90;99.90;;;;;;4959643;28;20431;-70
2021/04/26 05:04:07;;;;;;;603.95;390.40;;;3.90;99.90;;;;;;4976185;29;20442;-70
2021/04/26 05:06:54;;;;;;;594.78;366.90;;;3.90;99.90;;;;;;4960676;28;20439;-69
2021/04/26 05:09:47;;;;;;;609.58;424.20;;;4.00;99.90;;;;;;4960320;28;20466;-69
2021/04/26 05:12:35;;;;;;;599.00;381.40;;;4.10;99.90;;;;;;4973945;29;20424;-69
2021/04/26 05:15:23;;;;;;;599.80;386.77;;;4.10;99.90;;;;;;4953162;28;20419;-68
2021/04/26 05:17:52;;;;;;;600.78;369.20;;;4.10;99.90;;;;;;4964509;28;20403;-69
2021/04/26 05:20:20;;;;;;;595.83;349.85;;;4.30;99.90;;;;;;4960342;29;20416;-69
2021/04/26 05:22:51;;;;;;;601.53;358.40;;;4.40;99.90;;;;;;4959350;29;20411;-68
2021/04/26 05:25:18;;;;;;;612.40;425.30;;;4.50;99.90;;;;;;4945658;29;20411;-68
2021/04/26 05:27:49;;;;;;;616.70;406.80;;;4.50;99.50;;;;;;4952182;29;20419;-69
2021/04/26 05:30:19;;;;;;;611.42;420.20;;;4.60;99.40;;;;;;4965066;28;20432;-68
2021/04/26 05:32:47;;;;;;;617.50;442.70;;;4.70;99.20;;;;;;4968556;28;20447;-68
2021/04/26 05:36:14;;;;;;;613.85;451.30;;;4.80;99.00;;;;;;4984575;28;20439;-68
2021/04/26 05:38:56;;;;;;;613.25;441.08;;;5.00;98.70;;;;;;4965833;28;20428;-68
2021/04/26 05:41:24;;;;;;;624.08;473.20;;;5.00;98.40;;;;;;4998572;28;20503;-68
2021/04/26 05:43:53;;;;;;;612.30;409.80;;;5.10;98.10;;;;;;4965885;28;20416;-71
2021/04/26 05:46:24;;;;;;;603.08;434.75;;;5.00;98.10;;;;;;4980947;28;20467;-68
2021/04/26 05:48:52;;;;;;;603.25;395.92;;;5.10;97.90;;;;;;4998325;28;20424;-68
2021/04/26 05:51:20;;;;;;;622.72;460.25;;;5.20;97.90;;;;;;4983245;28;20516;-71
2021/04/26 05:53:47;;;;;;;628.80;509.45;;;5.30;97.90;;;;;;4982448;28;20871;-69
2021/04/26 05:56:16;;;;;;;633.00;524.13;;;5.50;97.70;;;;;;4995210;28;20427;-70
2021/04/26 05:58:43;;;;;;;619.40;459.55;;;5.80;97.30;;;;;;4979115;28;20424;-70
2021/04/26 06:01:12;;;;;;;616.78;452.92;;;5.90;96.20;;;;;;4978025;28;20459;-69
2021/04/26 06:03:40;;;;;;;623.67;462.03;;;6.10;95.80;;;;;;4979735;28;20910;-69
2021/04/26 06:06:08;;;;;;;618.42;441.27;;;6.50;95.60;;;;;;4979894;28;20422;-69
2021/04/26 06:08:35;;;;;;;622.90;470.00;;;6.90;94.50;;;;;;4979833;28;20416;-69
2021/04/26 06:11:04;;;;;;;628.72;483.50;;;7.20;93.90;;;;;;4979007;28;20804;-69
2021/04/26 06:13:31;;;;;;;632.00;481.65;;;7.80;93.40;;;;;;4982598;28;20444;-69
2021/04/26 06:15:58;;;;;;;638.55;539.83;;;8.10;91.80;;;;;;4993888;28;20428;-69
2021/04/26 06:18:30;;;;;;;643.53;560.05;;;8.60;90.20;;;;;;4984081;28;20461;-69
2021/04/26 06:20:58;;;;;;;630.25;515.50;;;9.30;86.00;;;;;;4962411;28;20768;-69
2021/04/26 06:23:26;;;;;;;670.80;598.47;;;9.80;81.60;;;;;;4976973;28;20448;-70
2021/04/26 06:25:53;;;;;;;761.10;687.40;;;10.40;78.70;;;;;;4943792;28;20412;-70
2021/04/26 06:28:20;;;;;;;804.22;728.72;;;11.00;74.00;;;;;;4978357;28;20495;-68
2021/04/26 06:30:49;;;;;;;889.15;811.65;;;11.60;71.50;;;;;;4957453;28;20432;-68
2021/04/26 06:33:17;;;;;;;789.27;714.50;;;11.80;68.20;;;;;;4974809;28;20421;-68
2021/04/26 06:36:10;;;;;;;812.03;736.60;;;11.70;66.00;;;;;;4959409;28;20948;-69
2021/04/26 06:38:38;;;;;;;830.55;754.65;;;11.60;63.50;;;;;;4941440;29;20429;-70
2021/04/26 06:41:08;;;;;;;767.10;692.83;;;12.40;64.60;;;;;;4957482;29;20426;-70
2021/04/26 06:43:36;;;;;;;757.75;683.75;;;12.40;61.10;;;;;;4958158;29;20422;-70
2021/04/26 06:46:14;;;;;;;796.35;721.05;;;11.80;62.50;;;;;;4956371;28;20457;-69
2021/04/26 06:48:42;;;;;;;817.92;742.33;;;13.10;59.70;;;;;;4989107;28;20409;-70
2021/04/26 06:51:10;;;;;;;842.67;765.97;;;13.70;56.70;;;;;;4958447;28;20441;-69
2021/04/26 06:53:38;;;;;;;857.70;780.60;;;13.40;56.10;;;;;;4957984;28;20485;-69
2021/04/26 06:56:06;;;;;;;863.90;786.50;;;12.60;56.00;;;;;;4956568;29;20414;-70
2021/04/26 06:58:34;;;;;;;881.97;803.80;;;12.80;56.30;;;;;;4958103;29;20410;-69
2021/04/26 07:01:01;;;;;;;862.35;784.95;;;13.10;55.10;;;;;;4955471;28;20410;-69
2021/04/26 07:03:29;;;;;;;861.40;784.30;;;12.40;56.90;;;;;;4958719;29;20452;-68
2021/04/26 07:05:59;;;;;;;852.03;775.13;;;12.40;56.40;;;;;;4941748;29;20802;-69
2021/04/26 07:08:27;;;;;;;836.47;760.08;;;11.50;55.90;;;;;;4957329;29;20418;-69
2021/04/26 07:10:55;;;;;;;837.80;761.38;;;11.60;56.90;;;;;;4958625;28;20453;-69
2021/04/26 07:13:23;;;;;;;841.25;764.35;;;11.90;56.60;;;;;;4958565;28;20410;-69
2021/04/26 07:15:50;;;;;;;858.40;781.20;;;12.50;56.30;;;;;;4957278;28;20421;-70
2021/04/26 07:18:18;;;;;;;853.60;776.70;;;12.50;54.60;;;;;;4973384;28;20422;-70
2021/04/26 07:20:46;;;;;;;850.65;773.85;;;11.90;56.00;;;;;;4958487;28;20421;-71
2021/04/26 07:23:14;;;;;;;875.33;797.53;;;12.20;55.40;;;;;;4958299;28;20449;-68
2021/04/26 07:25:43;;;;;;;868.55;790.83;;;13.00;54.60;;;;;;4959161;29;20429;-68
2021/04/26 07:28:14;;;;;;;894.72;816.03;;;12.90;54.40;;;;;;4963986;29;20418;-70
2021/04/26 07:30:42;;;;;;;935.67;855.47;;;13.00;53.30;;;;;;4985803;28;20449;-70
2021/04/26 07:33:10;;;;;;;986.03;903.83;;;14.70;51.70;;;;;;4999515;28;20425;-70
2021/04/26 07:35:38;;;;;;;985.30;903.30;;;14.80;49.30;;;;;;4997467;28;20445;-70
2021/04/26 07:38:31;;;;;;;996.53;914.13;;;14.90;49.10;;;;;;4998078;28;20944;-70
2021/04/26 07:41:01;;;;;;;1032.22;948.17;;;15.10;49.40;;;;;;4965609;29;20960;-70
2021/04/26 07:43:28;;;;;;;1051.30;966.50;;;15.80;47.50;;;;;;4962218;29;20432;-70
2021/04/26 07:45:56;;;;;;;1147.53;999.90;;;16.00;45.20;;;;;;4959450;28;20428;-70
2021/04/26 07:48:24;;;;;;;1154.47;999.90;;;17.60;45.10;;;;;;4959407;28;20422;-68
2021/04/26 07:50:51;;;;;;;1147.75;999.90;;;17.10;41.90;;;;;;4958493;29;20488;-69
2021/04/26 07:53:18;;;;;;;1149.68;999.90;;;16.70;42.00;;;;;;4957055;29;20417;-70
2021/04/26 07:55:46;;;;;;;1101.53;999.90;;;16.70;42.10;;;;;;4958244;28;20422;-69
2021/04/26 07:58:15;;;;;;;;;;;17.50;43.00;;;;;;4958893;28;20422;-70
2021/04/26 08:00:43;;;;;;;1139.38;999.90;;;17.60;40.00;;;;;;4958100;28;20465;-70
2021/04/26 08:03:11;;;;;;;1171.85;999.90;;;17.50;40.40;;;;;;4959282;28;20739;-71
2021/04/26 08:05:38;;;;;;;1157.35;999.90;;;18.20;38.90;;;;;;4958132;29;20512;-70
2021/04/26 08:08:06;;;;;;;1148.82;999.90;;;19.10;38.90;;;;;;4958536;29;20453;-71
2021/04/26 08:10:59;;;;;;;1146.30;999.90;;;17.10;38.60;;;;;;4957710;29;20449;-70
2021/04/26 08:13:28;;;;;;;1146.07;999.90;;;16.90;38.70;;;;;;4989523;28;20413;-70
2021/04/26 08:15:57;;;;;;;;;;;15.50;40.60;;;;;;4958303;28;20454;-68
2021/04/26 08:18:24;;;;;;;;;;;17.00;41.10;;;;;;4959147;29;19929;-68
2021/04/26 08:20:52;;;;;;;1188.57;999.90;;;18.10;37.90;;;;;;4958001;29;20442;-69
2021/04/26 08:23:20;;;;;;;1159.78;999.90;;;19.10;37.00;;;;;;4956309;29;20484;-69
2021/04/26 08:25:48;;;;;;;1165.20;999.90;;;18.90;37.20;;;;;;4957584;29;20417;-69
2021/04/26 08:28:18;;;;;;;1145.82;999.90;;;17.50;36.80;;;;;;4956481;29;20432;-69
2021/04/26 08:30:50;;;;;;;1119.40;999.90;;;17.00;38.00;;;;;;4987128;28;20449;-68
2021/04/26 08:33:18;;;;;;;1150.93;999.90;;;16.50;39.60;;;;;;4957090;28;20430;-69
2021/04/26 08:36:09;;;;;;;1195.15;999.90;;;18.70;38.00;;;;;;4960057;29;20418;-69
2021/04/26 08:38:37;;;;;;;1173.88;999.90;;;18.70;34.90;;;;;;4992288;28;20434;-69
2021/04/26 08:41:12;;;;;;;1166.32;999.90;;;18.90;35.50;;;;;;4961799;28;20418;-72
2021/04/26 08:43:41;;;;;;;1170.00;999.90;;;18.20;35.10;;;;;;4961152;28;20945;-69
2021/04/26 08:46:09;;;;;;;1171.00;999.90;;;18.60;35.00;;;;;;4983690;28;20880;-69
2021/04/26 08:48:37;;;;;;;1164.22;999.90;;;17.70;35.20;;;;;;4972218;28;20779;-69
2021/04/26 08:51:06;;;;;;;1182.05;999.90;;;17.60;36.30;;;;;;4972303;28;20416;-70
2021/04/26 08:53:33;;;;;;;1173.20;999.90;;;18.10;35.10;;;;;;4942270;29;20463;-69
2021/04/26 08:56:01;;;;;;;1152.43;999.90;;;16.60;35.40;;;;;;4941109;29;20425;-69
2021/04/26 08:58:29;;;;;;;1126.72;999.90;;;16.90;36.20;;;;;;4940891;29;20426;-70
2021/04/26 09:00:56;;;;;;;1132.05;999.90;;;16.80;37.20;;;;;;4970887;28;20431;-70
2021/04/26 09:03:32;;;;;;;1148.47;999.90;;;16.90;37.60;;;;;;4942001;29;20419;-69
2021/04/26 09:06:01;;;;;;;1172.75;999.90;;;17.10;36.50;;;;;;4971980;28;20478;-70
2021/04/26 09:08:30;;;;;;;1182.65;999.90;;;19.50;35.00;;;;;;4971802;28;20483;-70
2021/04/26 09:11:03;;;;;;;1154.55;999.90;;;17.90;34.60;;;;;;4941262;29;20424;-70
2021/04/26 09:13:35;;;;;;;1199.57;999.90;;;18.40;36.40;;;;;;4941396;29;20450;-69
2021/04/26 09:16:07;;;;;;;1208.65;999.90;;;19.90;33.80;;;;;;4940482;28;20428;-70
2021/04/26 09:19:00;;;;;;;1166.28;999.90;;;18.60;33.00;;;;;;4940399;29;20427;-70
2021/04/26 09:21:29;;;;;;;1178.72;999.90;;;18.00;34.80;;;;;;4941601;29;20420;-71
2021/04/26 09:24:23;;;;;;;1203.10;999.90;;;19.30;34.90;;;;;;4972291;28;20938;-70
2021/04/26 09:26:52;;;;;;;1226.32;999.90;;;19.80;33.90;;;;;;4955822;29;20427;-69
2021/04/26 09:29:23;;;;;;;1243.00;999.90;;;20.80;32.50;;;;;;4956191;29;20463;-69
2021/04/26 09:32:12;;;;;;;1232.35;999.90;;;20.40;32.20;;;;;;4957570;28;20433;-69
2021/04/26 09:34:42;;;;;;;1212.20;999.90;;;19.40;32.00;;;;;;4942643;29;20476;-72
2021/04/26 09:37:14;;;;;;;1196.80;999.90;;;18.50;33.50;;;;;;4960556;29;20832;-70
2021/04/26 09:40:02;;;;;;;1200.03;999.90;;;18.20;33.90;;;;;;4975440;28;20421;-70
2021/04/26 09:42:39;;;;;;;1220.55;999.90;;;19.20;34.40;;;;;;4959412;29;20422;-71
2021/04/26 09:45:24;;;;;;;1234.63;999.90;;;20.40;32.30;;;;;;4959508;28;20914;-70
2021/04/26 09:48:10;;;;;;;1242.57;999.90;;;19.50;31.80;;;;;;4980165;28;20417;-73
2021/04/26 09:50:56;;;;;;;1228.07;999.90;;;20.20;32.10;;;;;;4994515;28;20432;-71
2021/04/26 09:53:52;;;;;;;1219.50;999.90;;;20.40;33.10;;;;;;4979531;28;20444;-70
2021/04/26 09:56:22;;;;;;;1216.13;999.90;;;19.00;34.30;;;;;;4979857;28;20428;-69
2021/04/26 09:58:52;;;;;;;1249.85;999.90;;;20.00;33.90;;;;;;4978406;28;20459;-69
2021/04/26 10:01:22;;;;;;;1237.97;999.90;;;20.80;31.90;;;;;;4974443;28;20444;-72
2021/04/26 10:03:51;;;;;;;1235.78;999.90;;;20.30;31.60;;;;;;4979360;28;20420;-70
2021/04/26 10:06:24;;;;;;;1261.32;999.90;;;20.30;32.00;;;;;;4962041;28;20432;-70
2021/04/26 10:08:54;;;;;;;1230.97;999.90;;;21.30;31.60;;;;;;4962387;28;20431;-69
2021/04/26 10:11:26;;;;;;;1233.70;999.90;;;18.80;32.20;;;;;;4961847;28;20448;-69
2021/04/26 10:14:02;;;;;;;1237.20;999.90;;;19.20;33.30;;;;;;4979831;28;20424;-69
2021/04/26 10:16:44;;;;;;;1236.68;999.90;;;20.30;33.10;;;;;;4935087;28;20426;-70
2021/04/26 10:19:44;;;;;;;1229.82;999.90;;;19.80;31.00;;;;;;4960252;29;20509;-70
2021/04/26 10:22:14;;;;;;;1263.38;999.90;;;19.90;31.70;;;;;;4974939;28;20569;-70
2021/04/26 10:24:51;;;;;;;1293.68;999.90;;;21.10;31.50;;;;;;4960099;29;20420;-69
2021/04/26 10:27:30;;;;;;;1252.13;999.90;;;19.80;30.10;;;;;;4943701;29;20418;-69
2021/04/26 10:30:06;;;;;;;1257.90;999.90;;;19.20;32.00;;;;;;4959227;29;20521;-67
2021/04/26 10:32:55;;;;;;;1247.57;999.90;;;20.60;32.20;;;;;;4976386;28;20491;-72
2021/04/26 10:35:25;;;;;;;1310.28;999.90;;;20.70;32.30;;;;;;4978293;28;20420;-68
2021/04/26 10:37:54;;;;;;;1330.82;999.90;;;22.30;30.00;;;;;;4960637;28;20416;-69
2021/04/26 10:40:23;;;;;;;1356.63;999.90;;;25.30;29.10;;;;;;4977603;28;20432;-68
2021/04/26 10:42:53;;;;;;;1294.90;999.90;;;22.70;28.00;;;;;;4977186;28;20416;-68
2021/04/26 10:45:25;;;;;;;1298.40;999.90;;;21.30;29.80;;;;;;4961094;28;20527;-71
2021/04/26 10:48:12;;;;;;;1274.22;999.90;;;19.20;32.20;;;;;;4995684;28;20428;-71
2021/04/26 10:50:51;;;;;;;1254.40;999.90;;;19.30;34.00;;;;;;4994262;28;20451;-68
2021/04/26 10:53:21;;;;;;;1348.47;999.90;;;18.20;33.00;;;;;;4978445;28;20420;-70
2021/04/26 10:56:06;;;;;;;1234.80;999.90;;;16.70;35.20;;;;;;4944359;28;20920;-70
2021/04/26 10:58:39;;;;;;;1187.30;999.90;;;16.50;36.50;;;;;;4961327;28;20408;-69
2021/04/26 11:01:16;;;;;;;1236.43;999.90;;;16.40;36.00;;;;;;4960079;28;20899;-69
2021/04/26 11:03:45;;;;;;;1176.30;999.90;;;17.50;34.80;;;;;;4977715;28;20463;-69
2021/04/26 11:06:17;;;;;;;1203.85;999.90;;;17.60;33.30;;;;;;4978214;28;20420;-70
2021/04/26 11:08:50;;;;;;;1162.20;999.90;;;17.50;34.20;;;;;;4960597;28;20444;-69
2021/04/26 11:11:20;;;;;;;1140.97;999.90;;;16.80;33.90;;;;;;4977887;28;20440;-69
2021/04/26 11:13:55;;;;;;;1137.43;999.90;;;16.40;35.80;;;;;;4960600;28;20412;-68
2021/04/26 11:16:54;;;;;;;1138.90;999.90;;;16.00;35.50;;;;;;4959489;28;20436;-67
2021/04/26 11:19:22;;;;;;;1166.75;999.90;;;16.70;35.90;;;;;;4977245;28;20442;-67
2021/04/26 11:21:55;;;;;;;1215.75;999.90;;;17.30;34.10;;;;;;4960060;28;20423;-68
2021/04/26 11:24:52;;;;;;;1223.68;999.90;;;19.00;33.60;;;;;;4976442;28;20436;-67
2021/04/26 11:27:22;;;;;;;1230.47;999.90;;;19.40;31.70;;;;;;4977566;28;20439;-68
2021/04/26 11:30:18;;;;;;;1225.73;999.90;;;19.20;32.40;;;;;;4977180;28;20416;-68
2021/04/26 11:33:07;;;;;;;1214.70;999.90;;;18.80;32.20;;;;;;4992103;28;20432;-66
2021/04/26 11:35:57;;;;;;;1205.03;999.90;;;18.20;33.40;;;;;;4960112;28;20408;-66
2021/04/26 11:38:25;;;;;;;1201.40;999.90;;;18.50;33.70;;;;;;4992181;28;20483;-65
2021/04/26 11:40:53;;;;;;;1208.10;999.90;;;18.50;32.80;;;;;;4959557;28;20451;-65
2021/04/26 11:43:21;;;;;;;1223.25;999.90;;;18.90;33.60;;;;;;4976726;28;20418;-66
2021/04/26 11:45:50;;;;;;;1219.77;999.90;;;19.50;31.20;;;;;;4975952;28;20435;-68
2021/04/26 11:48:22;;;;;;;1216.65;999.90;;;19.40;31.50;;;;;;4977027;28;20443;-68
2021/04/26 11:50:50;;;;;;;1203.45;999.90;;;18.40;30.90;;;;;;4977126;28;20515;-65
2021/04/26 11:53:29;;;;;;;1191.03;999.90;;;18.30;32.50;;;;;;4976911;28;20412;-67
2021/04/26 11:56:12;;;;;;;1197.00;999.90;;;17.60;33.50;;;;;;4959991;28;20415;-66
2021/04/26 11:58:39;;;;;;;1208.18;999.90;;;18.40;33.30;;;;;;4959390;28;20421;-70
2021/04/26 12:01:10;;;;;;;1196.07;999.90;;;18.10;31.60;;;;;;4990721;28;20434;-66
2021/04/26 12:03:54;;;;;;;1190.85;999.90;;;17.60;32.60;;;;;;4975584;28;20780;-71
2021/04/26 12:06:23;;;;;;;1190.30;999.90;;;18.00;32.30;;;;;;4976941;28;20423;-68
2021/04/26 12:08:51;;;;;;;1191.00;999.90;;;18.10;31.80;;;;;;4960422;28;20935;-68
2021/04/26 12:11:22;;;;;;;1175.82;999.90;;;18.10;31.50;;;;;;4980520;28;20503;-68
2021/04/26 12:14:11;;;;;;;1160.65;999.90;;;16.90;31.40;;;;;;4994989;28;20900;-68
2021/04/26 12:16:39;;;;;;;1165.95;999.90;;;17.00;32.40;;;;;;4994813;28;20513;-71
2021/04/26 12:19:06;;;;;;;1158.88;999.90;;;17.40;31.80;;;;;;4980468;28;20418;-68
2021/04/26 12:21:35;;;;;;;1136.03;999.90;;;16.20;31.90;;;;;;4980771;28;20424;-68
2021/04/26 12:24:28;;;;;;;1136.38;999.90;;;16.10;32.90;;;;;;4963880;28;20424;-67
2021/04/26 12:26:57;;;;;;;1148.38;999.90;;;16.40;33.40;;;;;;4981016;28;20459;-69
2021/04/26 12:29:26;;;;;;;1138.03;999.90;;;17.50;33.60;;;;;;4980682;28;20423;-70
2021/04/26 12:32:12;;;;;;;1144.53;999.90;;;17.30;32.70;;;;;;4959187;28;20433;-68
2021/04/26 12:34:52;;;;;;;1143.53;999.90;;;17.10;32.50;;;;;;4961452;29;20500;-68
2021/04/26 12:37:22;;;;;;;1149.60;999.90;;;16.60;32.00;;;;;;4960664;29;20418;-69
2021/04/26 12:39:50;;;;;;;1143.40;999.90;;;16.90;32.20;;;;;;4959215;29;20464;-68
2021/04/26 12:42:20;;;;;;;1150.65;999.90;;;16.90;32.00;;;;;;4960654;28;20409;-70
2021/04/26 12:44:48;;;;;;;1178.07;999.90;;;17.30;31.90;;;;;;4960010;29;20940;-68
2021/04/26 12:47:22;;;;;;;1192.53;999.90;;;18.40;30.10;;;;;;4958129;28;20450;-67